sensor_id;sensor_type;location;lat;lon;timestamp;pressure;altitude;pressure_sealevel;temperature;humidity
15750;BME280;7976;52.526;13.326;2023-05-24T00:00:59;101324.56;;;12.56;67.56
15750;BME280;7976;52.526;13.326;2023-05-24T00:03:27;101329.00;;;12.55;67.50
15750;BME280;7976;52.526;13.326;2023-05-24T00:05:55;101330.75;;;12.55;67.47
15750;BME280;7976;52.526;13.326;2023-05-24T00:08:22;101324.69;;;12.53;67.23
15750;BME280;7976;52.526;13.326;2023-05-24T00:10:49;101330.94;;;12.50;67.40
15750;BME280;7976;52.526;13.326;2023-05-24T00:13:17;101338.94;;;12.46;67.23
15750;BME280;7976;52.526;13.326;2023-05-24T00:15:44;101337.25;;;12.45;67.35
15750;BME280;7976;52.526;13.326;2023-05-24T00:18:11;101344.88;;;12.51;67.16
15750;BME280;7976;52.526;13.326;2023-05-24T00:20:38;101343.88;;;12.55;67.26
15750;BME280;7976;52.526;13.326;2023-05-24T00:23:04;101336.00;;;12.55;66.85
15750;BME280;7976;52.526;13.326;2023-05-24T00:25:31;101342.91;;;12.57;66.97
15750;BME280;7976;52.526;13.326;2023-05-24T00:27:58;101349.88;;;12.58;67.07
15750;BME280;7976;52.526;13.326;2023-05-24T00:30:26;101351.69;;;12.56;66.97
15750;BME280;7976;52.526;13.326;2023-05-24T00:32:54;101345.53;;;12.57;66.96
15750;BME280;7976;52.526;13.326;2023-05-24T00:35:22;101345.50;;;12.59;66.68
15750;BME280;7976;52.526;13.326;2023-05-24T00:37:49;101343.66;;;12.61;66.94
15750;BME280;7976;52.526;13.326;2023-05-24T00:40:15;101340.88;;;12.66;66.98
15750;BME280;7976;52.526;13.326;2023-05-24T00:42:42;101334.75;;;12.65;66.77
15750;BME280;7976;52.526;13.326;2023-05-24T00:45:10;101340.13;;;12.62;66.74
15750;BME280;7976;52.526;13.326;2023-05-24T00:47:38;101335.84;;;12.59;66.65
15750;BME280;7976;52.526;13.326;2023-05-24T00:50:08;101343.59;;;12.62;66.61
15750;BME280;7976;52.526;13.326;2023-05-24T00:52:36;101342.81;;;12.60;66.74
15750;BME280;7976;52.526;13.326;2023-05-24T00:55:04;101344.63;;;12.58;66.77
15750;BME280;7976;52.526;13.326;2023-05-24T00:57:32;101340.25;;;12.59;66.66
15750;BME280;7976;52.526;13.326;2023-05-24T01:00:00;101337.66;;;12.57;66.59
15750;BME280;7976;52.526;13.326;2023-05-24T01:02:27;101341.19;;;12.56;66.78
15750;BME280;7976;52.526;13.326;2023-05-24T01:04:55;101339.59;;;12.52;66.50
15750;BME280;7976;52.526;13.326;2023-05-24T01:07:30;101342.38;;;12.48;66.83
15750;BME280;7976;52.526;13.326;2023-05-24T01:10:13;101341.44;;;12.50;66.94
15750;BME280;7976;52.526;13.326;2023-05-24T01:12:53;101337.88;;;12.51;67.06
15750;BME280;7976;52.526;13.326;2023-05-24T01:15:29;101346.56;;;12.53;66.93
15750;BME280;7976;52.526;13.326;2023-05-24T01:18:06;101339.38;;;12.58;66.89
15750;BME280;7976;52.526;13.326;2023-05-24T01:20:39;101344.63;;;12.58;66.92
15750;BME280;7976;52.526;13.326;2023-05-24T01:23:19;101345.50;;;12.59;67.25
15750;BME280;7976;52.526;13.326;2023-05-24T01:26:19;101346.34;;;12.59;67.30
15750;BME280;7976;52.526;13.326;2023-05-24T01:28:53;101352.69;;;12.54;67.48
15750;BME280;7976;52.526;13.326;2023-05-24T01:31:21;101349.19;;;12.53;67.44
15750;BME280;7976;52.526;13.326;2023-05-24T01:33:48;101349.19;;;12.53;67.48
15750;BME280;7976;52.526;13.326;2023-05-24T01:36:18;101346.44;;;12.56;67.47
15750;BME280;7976;52.526;13.326;2023-05-24T01:38:47;101350.78;;;12.57;67.61
15750;BME280;7976;52.526;13.326;2023-05-24T01:41:29;101355.25;;;12.55;67.72
15750;BME280;7976;52.526;13.326;2023-05-24T01:44:08;101354.50;;;12.52;67.77
15750;BME280;7976;52.526;13.326;2023-05-24T01:46:38;101351.88;;;12.52;68.22
15750;BME280;7976;52.526;13.326;2023-05-24T01:49:17;101356.25;;;12.51;67.82
15750;BME280;7976;52.526;13.326;2023-05-24T01:51:50;101360.81;;;12.46;68.30
15750;BME280;7976;52.526;13.326;2023-05-24T01:54:23;101353.00;;;12.45;68.44
15750;BME280;7976;52.526;13.326;2023-05-24T01:56:53;101352.13;;;12.44;68.53
15750;BME280;7976;52.526;13.326;2023-05-24T01:59:25;101352.13;;;12.44;68.41
15750;BME280;7976;52.526;13.326;2023-05-24T02:01:53;101359.75;;;12.52;68.78
15750;BME280;7976;52.526;13.326;2023-05-24T02:04:23;101360.59;;;12.52;68.54
15750;BME280;7976;52.526;13.326;2023-05-24T02:06:50;101350.19;;;12.49;68.55
15750;BME280;7976;52.526;13.326;2023-05-24T02:09:17;101362.56;;;12.46;68.78
15750;BME280;7976;52.526;13.326;2023-05-24T02:11:44;101359.94;;;12.46;68.79
15750;BME280;7976;52.526;13.326;2023-05-24T02:14:10;101357.38;;;12.44;69.05
15750;BME280;7976;52.526;13.326;2023-05-24T02:16:39;101357.50;;;12.41;68.96
15750;BME280;7976;52.526;13.326;2023-05-24T02:19:08;101358.31;;;12.43;69.05
15750;BME280;7976;52.526;13.326;2023-05-24T02:21:34;101350.44;;;12.43;69.22
15750;BME280;7976;52.526;13.326;2023-05-24T02:24:03;101363.56;;;12.43;69.25
15750;BME280;7976;52.526;13.326;2023-05-24T02:26:31;101353.88;;;12.45;69.14
15750;BME280;7976;52.526;13.326;2023-05-24T02:28:58;101358.31;;;12.43;69.32
15750;BME280;7976;52.526;13.326;2023-05-24T02:31:25;101358.34;;;12.42;69.13
15750;BME280;7976;52.526;13.326;2023-05-24T02:33:54;101353.09;;;12.42;69.31
15750;BME280;7976;52.526;13.326;2023-05-24T02:36:22;101356.69;;;12.39;69.42
15750;BME280;7976;52.526;13.326;2023-05-24T02:38:49;101348.06;;;12.36;69.28
15750;BME280;7976;52.526;13.326;2023-05-24T02:41:16;101350.69;;;12.36;69.38
15750;BME280;7976;52.526;13.326;2023-05-24T02:43:43;101347.22;;;12.35;69.23
15750;BME280;7976;52.526;13.326;2023-05-24T02:46:10;101351.44;;;12.39;69.24
15750;BME280;7976;52.526;13.326;2023-05-24T02:48:38;101346.25;;;12.38;69.38
15750;BME280;7976;52.526;13.326;2023-05-24T02:51:06;101351.44;;;12.39;69.42
15750;BME280;7976;52.526;13.326;2023-05-24T02:53:33;101355.88;;;12.37;69.60
15750;BME280;7976;52.526;13.326;2023-05-24T02:56:00;101355.22;;;12.31;69.51
15750;BME280;7976;52.526;13.326;2023-05-24T02:58:29;101357.25;;;12.23;69.62
15750;BME280;7976;52.526;13.326;2023-05-24T03:00:56;101352.13;;;12.20;69.98
15750;BME280;7976;52.526;13.326;2023-05-24T03:03:23;101354.69;;;12.21;70.08
15750;BME280;7976;52.526;13.326;2023-05-24T03:05:50;101356.41;;;12.22;70.13
15750;BME280;7976;52.526;13.326;2023-05-24T03:08:18;101357.22;;;12.24;69.90
15750;BME280;7976;52.526;13.326;2023-05-24T03:10:45;101359.84;;;12.24;69.78
15750;BME280;7976;52.526;13.326;2023-05-24T03:13:13;101358.00;;;12.26;70.02
15750;BME280;7976;52.526;13.326;2023-05-24T03:15:41;101360.53;;;12.29;70.15
15750;BME280;7976;52.526;13.326;2023-05-24T03:18:08;101352.66;;;12.29;70.13
15750;BME280;7976;52.526;13.326;2023-05-24T03:20:35;101350.97;;;12.28;70.20
15750;BME280;7976;52.526;13.326;2023-05-24T03:23:02;101352.88;;;12.23;70.15
15750;BME280;7976;52.526;13.326;2023-05-24T03:25:31;101355.69;;;12.17;70.20
15750;BME280;7976;52.526;13.326;2023-05-24T03:27:58;101364.59;;;12.13;70.24
15750;BME280;7976;52.526;13.326;2023-05-24T03:30:25;101368.09;;;12.14;70.36
15750;BME280;7976;52.526;13.326;2023-05-24T03:32:57;101368.81;;;12.17;70.24
15750;BME280;7976;52.526;13.326;2023-05-24T03:35:24;101374.88;;;12.19;70.23
15750;BME280;7976;52.526;13.326;2023-05-24T03:37:51;101372.34;;;12.16;70.16
15750;BME280;7976;52.526;13.326;2023-05-24T03:40:19;101366.28;;;12.14;70.04
15750;BME280;7976;52.526;13.326;2023-05-24T03:42:54;101370.72;;;12.14;70.23
15750;BME280;7976;52.526;13.326;2023-05-24T03:45:31;101373.16;;;12.18;70.27
15750;BME280;7976;52.526;13.326;2023-05-24T03:47:57;101381.03;;;12.18;70.18
15750;BME280;7976;52.526;13.326;2023-05-24T03:50:24;101373.13;;;12.20;70.15
15750;BME280;7976;52.526;13.326;2023-05-24T03:52:51;101372.25;;;12.19;70.02
15750;BME280;7976;52.526;13.326;2023-05-24T03:55:18;101382.63;;;12.22;70.16
15750;BME280;7976;52.526;13.326;2023-05-24T03:57:48;101378.09;;;12.27;69.84
15750;BME280;7976;52.526;13.326;2023-05-24T04:00:17;101369.22;;;12.31;69.67
15750;BME280;7976;52.526;13.326;2023-05-24T04:02:46;101372.47;;;12.38;69.47
15750;BME280;7976;52.526;13.326;2023-05-24T04:05:13;101369.81;;;12.39;69.47
15750;BME280;7976;52.526;13.326;2023-05-24T04:07:40;101376.09;;;12.35;69.31
15750;BME280;7976;52.526;13.326;2023-05-24T04:10:08;101380.63;;;12.30;69.16
15750;BME280;7976;52.526;13.326;2023-05-24T04:12:35;101375.28;;;12.33;69.18
15750;BME280;7976;52.526;13.326;2023-05-24T04:15:07;101381.06;;;12.43;68.94
15750;BME280;7976;52.526;13.326;2023-05-24T04:17:35;101378.25;;;12.47;68.78
15750;BME280;7976;52.526;13.326;2023-05-24T04:20:03;101381.59;;;12.52;68.56
15750;BME280;7976;52.526;13.326;2023-05-24T04:22:31;101389.31;;;12.57;68.63
15750;BME280;7976;52.526;13.326;2023-05-24T04:25:00;101384.13;;;12.55;68.39
15750;BME280;7976;52.526;13.326;2023-05-24T04:27:27;101392.91;;;12.54;68.61
15750;BME280;7976;52.526;13.326;2023-05-24T04:29:55;101387.66;;;12.54;68.65
15750;BME280;7976;52.526;13.326;2023-05-24T04:32:22;101392.09;;;12.52;68.73
15750;BME280;7976;52.526;13.326;2023-05-24T04:34:51;101394.72;;;12.52;68.71
15750;BME280;7976;52.526;13.326;2023-05-24T04:37:18;101393.13;;;12.48;68.57
15750;BME280;7976;52.526;13.326;2023-05-24T04:39:46;101392.19;;;12.49;68.64
15750;BME280;7976;52.526;13.326;2023-05-24T04:42:14;101395.53;;;12.54;68.83
15750;BME280;7976;52.526;13.326;2023-05-24T04:44:41;101405.19;;;12.54;68.79
15750;BME280;7976;52.526;13.326;2023-05-24T04:47:09;101404.56;;;12.46;68.96
15750;BME280;7976;52.526;13.326;2023-05-24T04:49:37;101403.78;;;12.44;68.84
15750;BME280;7976;52.526;13.326;2023-05-24T04:52:06;101408.28;;;12.40;68.97
15750;BME280;7976;52.526;13.326;2023-05-24T04:54:33;101407.38;;;12.41;68.84
15750;BME280;7976;52.526;13.326;2023-05-24T04:57:00;101418.56;;;12.46;68.76
15750;BME280;7976;52.526;13.326;2023-05-24T04:59:27;101416.66;;;12.51;68.54
15750;BME280;7976;52.526;13.326;2023-05-24T05:01:54;101420.97;;;12.52;68.19
15750;BME280;7976;52.526;13.326;2023-05-24T05:04:21;101423.41;;;12.58;68.20
15750;BME280;7976;52.526;13.326;2023-05-24T05:06:48;101429.41;;;12.62;67.78
15750;BME280;7976;52.526;13.326;2023-05-24T05:09:17;101435.47;;;12.64;67.81
15750;BME280;7976;52.526;13.326;2023-05-24T05:11:45;101424.97;;;12.64;67.92
15750;BME280;7976;52.526;13.326;2023-05-24T05:14:12;101431.06;;;12.64;67.62
15750;BME280;7976;52.526;13.326;2023-05-24T05:16:39;101432.75;;;12.67;67.59
15750;BME280;7976;52.526;13.326;2023-05-24T05:19:06;101440.88;;;12.59;67.68
15750;BME280;7976;52.526;13.326;2023-05-24T05:21:33;101440.91;;;12.58;67.85
15750;BME280;7976;52.526;13.326;2023-05-24T05:24:01;101443.59;;;12.56;67.88
15750;BME280;7976;52.526;13.326;2023-05-24T05:26:30;101443.66;;;12.55;67.58
15750;BME280;7976;52.526;13.326;2023-05-24T05:28:57;101446.28;;;12.55;67.53
15750;BME280;7976;52.526;13.326;2023-05-24T05:31:24;101437.44;;;12.57;67.42
15750;BME280;7976;52.526;13.326;2023-05-24T05:33:51;101436.44;;;12.61;67.07
15750;BME280;7976;52.526;13.326;2023-05-24T05:36:18;101449.44;;;12.64;67.10
15750;BME280;7976;52.526;13.326;2023-05-24T05:38:45;101452.88;;;12.67;67.07
15750;BME280;7976;52.526;13.326;2023-05-24T05:41:12;101457.25;;;12.66;66.95
15750;BME280;7976;52.526;13.326;2023-05-24T05:43:40;101463.59;;;12.60;66.79
15750;BME280;7976;52.526;13.326;2023-05-24T05:46:07;101461.16;;;12.54;67.12
15750;BME280;7976;52.526;13.326;2023-05-24T05:48:36;101463.91;;;12.51;67.23
15750;BME280;7976;52.526;13.326;2023-05-24T05:51:03;101469.84;;;12.56;67.20
15750;BME280;7976;52.526;13.326;2023-05-24T05:53:34;101469.75;;;12.59;67.43
15750;BME280;7976;52.526;13.326;2023-05-24T05:56:01;101472.25;;;12.62;67.42
15750;BME280;7976;52.526;13.326;2023-05-24T05:58:28;101469.63;;;12.64;67.51
15750;BME280;7976;52.526;13.326;2023-05-24T06:00:56;101474.75;;;12.67;67.32
15750;BME280;7976;52.526;13.326;2023-05-24T06:03:23;101475.66;;;12.66;67.52
15750;BME280;7976;52.526;13.326;2023-05-24T06:05:50;101479.34;;;12.60;67.28
15750;BME280;7976;52.526;13.326;2023-05-24T06:08:16;101470.78;;;12.55;67.58
15750;BME280;7976;52.526;13.326;2023-05-24T06:10:44;101480.19;;;12.61;68.04
15750;BME280;7976;52.526;13.326;2023-05-24T06:13:11;101482.59;;;12.69;67.82
15750;BME280;7976;52.526;13.326;2023-05-24T06:15:38;101490.41;;;12.70;67.83
15750;BME280;7976;52.526;13.326;2023-05-24T06:18:09;101491.16;;;12.74;68.07
15750;BME280;7976;52.526;13.326;2023-05-24T06:20:35;101491.91;;;12.77;67.81
15750;BME280;7976;52.526;13.326;2023-05-24T06:23:03;101483.22;;;12.75;67.79
15750;BME280;7976;52.526;13.326;2023-05-24T06:25:30;101490.13;;;12.78;67.76
15750;BME280;7976;52.526;13.326;2023-05-24T06:27:57;101499.63;;;12.82;67.58
15750;BME280;7976;52.526;13.326;2023-05-24T06:30:24;101498.56;;;12.87;67.47
15750;BME280;7976;52.526;13.326;2023-05-24T06:32:51;101496.00;;;12.86;67.79
15750;BME280;7976;52.526;13.326;2023-05-24T06:35:19;101497.59;;;12.90;67.53
15750;BME280;7976;52.526;13.326;2023-05-24T06:37:47;101494.09;;;12.91;67.63
15750;BME280;7976;52.526;13.326;2023-05-24T06:40:13;101500.97;;;12.93;67.87
15750;BME280;7976;52.526;13.326;2023-05-24T06:42:40;101499.84;;;13.02;67.79
15750;BME280;7976;52.526;13.326;2023-05-24T06:45:08;101502.34;;;13.05;67.84
15750;BME280;7976;52.526;13.326;2023-05-24T06:47:35;101503.34;;;13.01;68.03
15750;BME280;7976;52.526;13.326;2023-05-24T06:50:04;101507.53;;;13.08;68.02
15750;BME280;7976;52.526;13.326;2023-05-24T06:52:32;101509.00;;;13.15;67.92
15750;BME280;7976;52.526;13.326;2023-05-24T06:54:59;101518.69;;;13.14;67.72
15750;BME280;7976;52.526;13.326;2023-05-24T06:57:26;101523.88;;;13.16;67.81
15750;BME280;7976;52.526;13.326;2023-05-24T06:59:53;101524.03;;;13.11;67.86
15750;BME280;7976;52.526;13.326;2023-05-24T07:02:19;101522.53;;;13.04;67.92
15750;BME280;7976;52.526;13.326;2023-05-24T07:04:51;101527.84;;;13.03;68.06
15750;BME280;7976;52.526;13.326;2023-05-24T07:11:26;101525.50;;;12.94;68.12
15750;BME280;7976;52.526;13.326;2023-05-24T07:22:06;101540.47;;;13.18;68.03
15750;BME280;7976;52.526;13.326;2023-05-24T07:24:33;101544.47;;;13.28;67.76
15750;BME280;7976;52.526;13.326;2023-05-24T07:27:01;101542.38;;;13.37;67.71
15750;BME280;7976;52.526;13.326;2023-05-24T07:33:36;101542.84;;;13.48;67.65
15750;BME280;7976;52.526;13.326;2023-05-24T07:36:04;101542.16;;;13.43;67.70
15750;BME280;7976;52.526;13.326;2023-05-24T07:38:32;101541.19;;;13.46;67.69
15750;BME280;7976;52.526;13.326;2023-05-24T07:41:01;101556.97;;;13.46;67.69
15750;BME280;7976;52.526;13.326;2023-05-24T07:43:30;101557.78;;;13.48;67.94
15750;BME280;7976;52.526;13.326;2023-05-24T07:45:57;101563.63;;;13.56;67.77
15750;BME280;7976;52.526;13.326;2023-05-24T07:48:25;101563.50;;;13.59;67.55
15750;BME280;7976;52.526;13.326;2023-05-24T07:50:52;101565.84;;;13.66;67.58
15750;BME280;7976;52.526;13.326;2023-05-24T07:53:19;101565.75;;;13.69;67.08
15750;BME280;7976;52.526;13.326;2023-05-24T07:55:47;101562.94;;;13.74;67.16
15750;BME280;7976;52.526;13.326;2023-05-24T07:58:15;101572.09;;;13.87;66.98
15750;BME280;7976;52.526;13.326;2023-05-24T08:00:44;101567.56;;;13.91;66.49
15750;BME280;7976;52.526;13.326;2023-05-24T08:03:11;101573.66;;;13.93;66.97
15750;BME280;7976;52.526;13.326;2023-05-24T08:05:40;101577.84;;;13.98;66.94
15750;BME280;7976;52.526;13.326;2023-05-24T08:08:07;101574.16;;;14.02;66.65
15750;BME280;7976;52.526;13.326;2023-05-24T08:10:35;101573.19;;;14.05;66.48
15750;BME280;7976;52.526;13.326;2023-05-24T08:13:02;101576.72;;;14.04;66.19
15750;BME280;7976;52.526;13.326;2023-05-24T08:15:30;101581.34;;;13.97;66.42
15750;BME280;7976;52.526;13.326;2023-05-24T08:17:59;101577.03;;;13.96;66.38
15750;BME280;7976;52.526;13.326;2023-05-24T08:20:26;101584.91;;;13.96;66.42
15750;BME280;7976;52.526;13.326;2023-05-24T08:22:53;101585.75;;;13.97;66.35
15750;BME280;7976;52.526;13.326;2023-05-24T08:25:20;101583.88;;;14.00;66.60
15750;BME280;7976;52.526;13.326;2023-05-24T08:27:47;101591.69;;;14.03;66.18
15750;BME280;7976;52.526;13.326;2023-05-24T08:30:14;101587.44;;;13.99;66.21
15750;BME280;7976;52.526;13.326;2023-05-24T08:32:43;101582.41;;;13.93;66.54
15750;BME280;7976;52.526;13.326;2023-05-24T08:35:12;101596.28;;;13.97;66.55
15750;BME280;7976;52.526;13.326;2023-05-24T08:37:39;101589.13;;;14.00;66.16
15750;BME280;7976;52.526;13.326;2023-05-24T08:40:08;101597.22;;;13.96;66.13
15750;BME280;7976;52.526;13.326;2023-05-24T08:42:39;101599.22;;;13.89;65.80
15750;BME280;7976;52.526;13.326;2023-05-24T08:45:12;101598.78;;;13.76;65.78
15750;BME280;7976;52.526;13.326;2023-05-24T08:47:41;101596.22;;;13.75;66.09
15750;BME280;7976;52.526;13.326;2023-05-24T08:50:09;101609.09;;;13.82;65.72
15750;BME280;7976;52.526;13.326;2023-05-24T08:52:39;101598.53;;;13.84;65.67
15750;BME280;7976;52.526;13.326;2023-05-24T08:55:08;101601.66;;;13.94;65.55
15750;BME280;7976;52.526;13.326;2023-05-24T08:57:37;101606.78;;;13.98;65.45
15750;BME280;7976;52.526;13.326;2023-05-24T09:00:08;101618.84;;;14.04;65.21
15750;BME280;7976;52.526;13.326;2023-05-24T09:02:37;101608.84;;;14.13;65.10
15750;BME280;7976;52.526;13.326;2023-05-24T09:05:10;101606.97;;;14.15;65.12
15750;BME280;7976;52.526;13.326;2023-05-24T09:07:41;101614.59;;;14.23;65.07
15750;BME280;7976;52.526;13.326;2023-05-24T09:10:10;101618.69;;;14.31;64.79
15750;BME280;7976;52.526;13.326;2023-05-24T09:12:39;101623.22;;;14.28;64.63
15750;BME280;7976;52.526;13.326;2023-05-24T09:15:10;101622.28;;;14.29;64.61
15750;BME280;7976;52.526;13.326;2023-05-24T09:17:38;101616.00;;;14.33;64.49
15750;BME280;7976;52.526;13.326;2023-05-24T09:20:07;101625.78;;;14.29;64.33
15750;BME280;7976;52.526;13.326;2023-05-24T09:22:38;101619.00;;;14.22;64.53
15750;BME280;7976;52.526;13.326;2023-05-24T09:25:08;101619.13;;;14.19;64.79
15750;BME280;7976;52.526;13.326;2023-05-24T09:27:36;101613.97;;;14.16;64.95
15750;BME280;7976;52.526;13.326;2023-05-24T09:30:08;101615.81;;;14.14;64.96
15750;BME280;7976;52.526;13.326;2023-05-24T09:32:37;101613.88;;;14.19;64.96
15750;BME280;7976;52.526;13.326;2023-05-24T09:35:08;101618.03;;;14.26;64.70
15750;BME280;7976;52.526;13.326;2023-05-24T09:37:37;101619.81;;;14.24;64.58
15750;BME280;7976;52.526;13.326;2023-05-24T09:40:06;101617.31;;;14.21;64.24
15750;BME280;7976;52.526;13.326;2023-05-24T09:42:43;101614.09;;;14.13;64.35
15750;BME280;7976;52.526;13.326;2023-05-24T09:45:11;101614.09;;;14.13;64.61
15750;BME280;7976;52.526;13.326;2023-05-24T09:47:41;101617.31;;;14.21;64.33
15750;BME280;7976;52.526;13.326;2023-05-24T09:50:13;101611.88;;;14.26;64.43
15750;BME280;7976;52.526;13.326;2023-05-24T09:52:42;101622.34;;;14.27;64.40
15750;BME280;7976;52.526;13.326;2023-05-24T09:55:14;101616.22;;;14.27;64.62
15750;BME280;7976;52.526;13.326;2023-05-24T09:57:43;101622.81;;;14.38;64.34
15750;BME280;7976;52.526;13.326;2023-05-24T10:00:12;101629.44;;;14.48;64.05
15750;BME280;7976;52.526;13.326;2023-05-24T10:02:42;101630.22;;;14.50;63.95
15750;BME280;7976;52.526;13.326;2023-05-24T10:05:11;101635.63;;;14.47;63.93
15750;BME280;7976;52.526;13.326;2023-05-24T10:07:39;101632.13;;;14.47;64.10
15750;BME280;7976;52.526;13.326;2023-05-24T10:10:10;101630.28;;;14.49;63.89
15750;BME280;7976;52.526;13.326;2023-05-24T10:12:38;101631.97;;;14.51;63.75
15750;BME280;7976;52.526;13.326;2023-05-24T10:15:10;101640.66;;;14.53;63.56
15750;BME280;7976;52.526;13.326;2023-05-24T10:21:44;101634.06;;;14.86;63.17
15750;BME280;7976;52.526;13.326;2023-05-24T10:28:22;101632.59;;;15.21;62.36
15750;BME280;7976;52.526;13.326;2023-05-24T10:35:32;101627.94;;;15.88;60.77
15750;BME280;7976;52.526;13.326;2023-05-24T10:38:05;101629.28;;;16.16;60.05
15750;BME280;7976;52.526;13.326;2023-05-24T10:40:33;101630.28;;;16.33;59.18
15750;BME280;7976;52.526;13.326;2023-05-24T10:43:03;101641.44;;;16.39;58.64
15750;BME280;7976;52.526;13.326;2023-05-24T10:45:36;101635.34;;;16.37;58.75
15750;BME280;7976;52.526;13.326;2023-05-24T10:48:33;101639.84;;;16.35;58.22
15750;BME280;7976;52.526;13.326;2023-05-24T10:51:30;101639.13;;;16.31;58.17
15750;BME280;7976;52.526;13.326;2023-05-24T10:54:11;101639.34;;;16.27;57.90
15750;BME280;7976;52.526;13.326;2023-05-24T10:56:44;101637.13;;;16.18;57.75
15750;BME280;7976;52.526;13.326;2023-05-24T10:59:23;101638.34;;;15.91;57.77
15750;BME280;7976;52.526;13.326;2023-05-24T11:01:56;101640.19;;;15.70;58.26
15750;BME280;7976;52.526;13.326;2023-05-24T11:04:23;101638.13;;;15.57;58.72
15750;BME280;7976;52.526;13.326;2023-05-24T11:06:55;101647.38;;;15.47;59.01
15750;BME280;7976;52.526;13.326;2023-05-24T11:09:23;101635.22;;;15.43;59.26
15750;BME280;7976;52.526;13.326;2023-05-24T11:11:55;101641.53;;;15.39;59.25
15750;BME280;7976;52.526;13.326;2023-05-24T11:14:26;101635.47;;;15.37;59.18
15750;BME280;7976;52.526;13.326;2023-05-24T11:16:56;101645.53;;;15.27;59.46
15750;BME280;7976;52.526;13.326;2023-05-24T11:19:31;101640.59;;;15.20;59.53
15750;BME280;7976;52.526;13.326;2023-05-24T11:22:01;101637.94;;;15.20;59.55
15750;BME280;7976;52.526;13.326;2023-05-24T11:24:29;101639.66;;;15.21;59.43
15750;BME280;7976;52.526;13.326;2023-05-24T11:26:59;101637.69;;;15.26;59.22
15750;BME280;7976;52.526;13.326;2023-05-24T11:29:27;101642.34;;;15.41;58.98
15750;BME280;7976;52.526;13.326;2023-05-24T11:31:57;101637.56;;;15.50;58.56
15750;BME280;7976;52.526;13.326;2023-05-24T11:34:29;101644.06;;;15.62;58.44
15750;BME280;7976;52.526;13.326;2023-05-24T11:36:57;101644.97;;;15.81;57.92
15750;BME280;7976;52.526;13.326;2023-05-24T11:39:29;101637.16;;;15.98;57.45
15750;BME280;7976;52.526;13.326;2023-05-24T11:41:56;101634.84;;;16.10;56.67
15750;BME280;7976;52.526;13.326;2023-05-24T11:44:23;101637.50;;;16.29;56.38
15750;BME280;7976;52.526;13.326;2023-05-24T11:46:57;101632.66;;;16.57;55.65
15750;BME280;7976;52.526;13.326;2023-05-24T11:49:25;101638.00;;;16.74;54.84
15750;BME280;7976;52.526;13.326;2023-05-24T11:51:54;101642.13;;;16.80;55.00
15750;BME280;7976;52.526;13.326;2023-05-24T11:54:22;101634.13;;;16.81;54.83
15750;BME280;7976;52.526;13.326;2023-05-24T11:56:49;101644.22;;;16.73;54.49
15750;BME280;7976;52.526;13.326;2023-05-24T11:59:21;101641.88;;;16.67;54.91
15750;BME280;7976;52.526;13.326;2023-05-24T12:01:57;101636.28;;;16.55;55.70
15750;BME280;7976;52.526;13.326;2023-05-24T12:04:25;101649.34;;;16.39;56.28
15750;BME280;7976;52.526;13.326;2023-05-24T12:06:52;101648.97;;;16.28;56.51
15750;BME280;7976;52.526;13.326;2023-05-24T12:09:21;101649.19;;;16.23;56.79
15750;BME280;7976;52.526;13.326;2023-05-24T12:11:50;101656.41;;;16.20;56.99
15750;BME280;7976;52.526;13.326;2023-05-24T12:14:19;101651.34;;;16.15;57.42
15750;BME280;7976;52.526;13.326;2023-05-24T12:16:48;101653.91;;;16.17;57.30
15750;BME280;7976;52.526;13.326;2023-05-24T12:19:17;101659.53;;;16.28;57.52
15750;BME280;7976;52.526;13.326;2023-05-24T12:21:46;101652.19;;;16.34;57.13
15750;BME280;7976;52.526;13.326;2023-05-24T12:24:16;101661.28;;;16.29;57.14
15750;BME280;7976;52.526;13.326;2023-05-24T12:26:46;101652.56;;;16.27;56.71
15750;BME280;7976;52.526;13.326;2023-05-24T12:29:14;101660.34;;;16.30;56.77
15750;BME280;7976;52.526;13.326;2023-05-24T12:31:45;101653.63;;;16.42;55.89
15750;BME280;7976;52.526;13.326;2023-05-24T12:34:14;101656.28;;;16.42;55.44
15750;BME280;7976;52.526;13.326;2023-05-24T12:36:43;101649.81;;;16.49;55.66
15750;BME280;7976;52.526;13.326;2023-05-24T12:39:18;101656.47;;;16.57;55.05
15750;BME280;7976;52.526;13.326;2023-05-24T12:41:49;101653.09;;;16.72;54.99
15750;BME280;7976;52.526;13.326;2023-05-24T12:44:21;101657.56;;;16.89;54.56
15750;BME280;7976;52.526;13.326;2023-05-24T12:46:48;101653.38;;;17.02;54.28
15750;BME280;7976;52.526;13.326;2023-05-24T12:49:17;101646.34;;;17.19;53.97
15750;BME280;7976;52.526;13.326;2023-05-24T12:51:46;101651.69;;;17.35;53.86
15750;BME280;7976;52.526;13.326;2023-05-24T12:54:13;101650.72;;;17.37;53.47
15750;BME280;7976;52.526;13.326;2023-05-24T12:56:40;101645.69;;;17.31;53.40
15750;BME280;7976;52.526;13.326;2023-05-24T12:59:07;101646.72;;;17.29;53.19
15750;BME280;7976;52.526;13.326;2023-05-24T13:01:35;101647.88;;;17.23;53.62
15750;BME280;7976;52.526;13.326;2023-05-24T13:04:02;101654.16;;;17.04;53.75
15750;BME280;7976;52.526;13.326;2023-05-24T13:06:29;101655.47;;;16.95;54.17
15750;BME280;7976;52.526;13.326;2023-05-24T13:08:57;101652.97;;;16.92;54.63
15750;BME280;7976;52.526;13.326;2023-05-24T13:11:24;101654.25;;;17.02;54.81
15750;BME280;7976;52.526;13.326;2023-05-24T13:13:52;101652.16;;;17.09;54.87
15750;BME280;7976;52.526;13.326;2023-05-24T13:16:19;101655.03;;;17.21;55.01
15750;BME280;7976;52.526;13.326;2023-05-24T13:18:46;101648.59;;;17.27;54.94
15750;BME280;7976;52.526;13.326;2023-05-24T13:21:12;101640.50;;;17.30;54.72
15750;BME280;7976;52.526;13.326;2023-05-24T13:23:39;101650.53;;;17.40;54.27
15750;BME280;7976;52.526;13.326;2023-05-24T13:26:09;101647.91;;;17.40;54.38
15750;BME280;7976;52.526;13.326;2023-05-24T13:28:36;101648.41;;;17.48;54.24